Time;durP1;ratioP1;P1;durP2;ratioP2;P2;SDS_P1;SDS_P2;PMS_P1;PMS_P2;Temp;Humidity;BMP_temperature;BMP_pressure;BME280_temperature;BME280_humidity;BME280_pressure;Samples;Min_cycle;Max_cycle;Signal;HPM_P1;HPM_P2
2023/08/07 00:01:44;;;;;;;13.27;3.28;;;13.40;99.90;;;;;;5034397;28;20064;-63
2023/08/07 00:04:10;;;;;;;16.25;3.45;;;13.30;99.90;;;;;;5032375;28;20040;-58
2023/08/07 00:06:36;;;;;;;10.40;3.50;;;13.30;99.90;;;;;;5031930;28;20032;-62
2023/08/07 00:09:01;;;;;;;17.52;3.60;;;13.20;99.90;;;;;;5036100;28;20029;-62
2023/08/07 00:11:28;;;;;;;16.90;3.67;;;13.20;99.90;;;;;;5031533;28;20041;-61
2023/08/07 00:13:54;;;;;;;17.42;3.75;;;13.20;99.90;;;;;;5036627;28;20052;-61
2023/08/07 00:16:19;;;;;;;14.20;3.95;;;13.20;99.90;;;;;;5029863;28;20068;-58
2023/08/07 00:18:45;;;;;;;18.23;4.07;;;13.10;99.90;;;;;;5031388;28;20029;-61
2023/08/07 00:21:12;;;;;;;21.95;3.35;;;13.20;99.90;;;;;;5035913;28;20025;-61
2023/08/07 00:23:37;;;;;;;28.92;3.78;;;13.10;99.90;;;;;;5037757;28;20033;-63
2023/08/07 00:26:03;;;;;;;13.25;3.70;;;13.10;99.90;;;;;;5033098;28;20029;-62
2023/08/07 00:28:29;;;;;;;14.32;3.55;;;13.10;99.90;;;;;;5040664;28;20172;-61
2023/08/07 00:30:55;;;;;;;22.10;3.97;;;13.10;99.90;;;;;;5042313;28;20029;-57
2023/08/07 00:33:20;;;;;;;25.58;4.57;;;13.10;99.90;;;;;;5036134;28;20029;-60
2023/08/07 00:35:46;;;;;;;21.52;4.10;;;13.10;99.90;;;;;;5043517;28;20051;-61
2023/08/07 00:38:11;;;;;;;18.00;3.50;;;13.10;99.90;;;;;;5037326;28;20150;-61
2023/08/07 00:40:39;;;;;;;14.32;3.78;;;13.10;99.90;;;;;;5033464;28;20148;-61
2023/08/07 00:43:04;;;;;;;16.65;4.18;;;13.10;99.90;;;;;;5036592;28;20033;-62
2023/08/07 00:45:39;;;;;;;16.55;3.40;;;13.10;99.90;;;;;;5037236;28;20516;-60
2023/08/07 00:48:05;;;;;;;21.50;3.80;;;13.10;99.90;;;;;;5034891;28;20053;-59
2023/08/07 00:50:31;;;;;;;23.00;4.90;;;13.10;99.90;;;;;;5034267;28;20033;-62
2023/08/07 00:52:57;;;;;;;18.65;4.03;;;13.10;99.90;;;;;;5037181;28;20021;-61
2023/08/07 00:55:22;;;;;;;20.17;3.80;;;13.10;99.90;;;;;;5035589;28;20033;-60
2023/08/07 00:57:49;;;;;;;22.27;3.97;;;13.10;99.90;;;;;;5034819;28;20087;-59
2023/08/07 01:00:16;;;;;;;15.98;4.05;;;13.00;99.90;;;;;;5038934;28;20493;-61
2023/08/07 01:02:41;;;;;;;14.52;4.10;;;13.00;99.90;;;;;;5033787;28;20033;-63
2023/08/07 01:05:07;;;;;;;22.17;4.82;;;13.00;99.90;;;;;;5032355;28;20024;-61
2023/08/07 01:07:33;;;;;;;19.40;4.57;;;13.00;99.90;;;;;;5033094;28;20079;-63
2023/08/07 01:10:02;;;;;;;21.92;3.92;;;12.90;99.90;;;;;;5036106;28;20029;-62
2023/08/07 01:12:32;;;;;;;19.48;4.22;;;12.90;99.90;;;;;;5032949;28;20044;-64
2023/08/07 01:15:21;;;;;;;17.85;3.97;;;12.90;99.90;;;;;;5032895;28;20620;-63
2023/08/07 01:17:48;;;;;;;17.15;4.03;;;13.00;99.90;;;;;;5039607;28;20053;-64
2023/08/07 01:20:14;;;;;;;20.45;5.32;;;12.90;99.90;;;;;;5035697;28;20498;-60
2023/08/07 01:22:39;;;;;;;18.45;3.63;;;13.00;99.90;;;;;;5034350;28;20030;-62
2023/08/07 01:25:05;;;;;;;16.08;3.70;;;13.00;99.90;;;;;;5033206;28;20026;-61
2023/08/07 01:27:36;;;;;;;22.27;4.32;;;13.00;99.90;;;;;;5033642;28;20033;-62
2023/08/07 01:30:25;;;;;;;21.58;4.18;;;13.00;99.90;;;;;;5037292;28;20048;-62
2023/08/07 01:33:12;;;;;;;20.42;3.50;;;13.00;99.90;;;;;;5038436;28;20480;-62
2023/08/07 01:35:45;;;;;;;15.88;3.25;;;13.10;99.90;;;;;;5032578;28;20108;-62
2023/08/07 01:38:12;;;;;;;25.13;4.45;;;13.10;99.90;;;;;;5037171;28;20498;-62
2023/08/07 01:40:40;;;;;;;15.15;3.40;;;13.10;99.90;;;;;;5033917;28;20025;-62
2023/08/07 01:43:05;;;;;;;18.58;3.42;;;13.10;99.90;;;;;;5037890;28;20158;-62
2023/08/07 01:45:31;;;;;;;21.17;3.75;;;13.20;99.90;;;;;;5035751;28;20108;-62
2023/08/07 01:47:57;;;;;;;21.73;3.47;;;13.20;99.90;;;;;;5033862;28;20504;-61
2023/08/07 01:50:23;;;;;;;21.13;3.25;;;13.20;99.90;;;;;;5034256;28;20037;-63
2023/08/07 01:52:49;;;;;;;17.65;2.55;;;13.20;99.90;;;;;;5032280;28;20021;-62
2023/08/07 01:55:16;;;;;;;17.85;3.17;;;13.20;99.90;;;;;;5030765;28;20040;-60
2023/08/07 01:57:42;;;;;;;10.70;2.92;;;13.30;99.90;;;;;;5029652;28;20036;-62
2023/08/07 02:00:08;;;;;;;9.60;2.70;;;13.30;99.90;;;;;;5035808;28;20025;-61
2023/08/07 02:02:34;;;;;;;19.42;3.42;;;13.30;99.90;;;;;;5037638;28;20075;-62
2023/08/07 02:05:00;;;;;;;21.35;4.35;;;13.30;99.90;;;;;;5035966;28;20039;-63
2023/08/07 02:07:25;;;;;;;20.02;3.72;;;13.30;99.90;;;;;;5031045;28;20924;-61
2023/08/07 02:09:51;;;;;;;22.45;4.28;;;13.30;99.90;;;;;;5040740;28;20052;-63
2023/08/07 02:12:16;;;;;;;12.65;3.65;;;13.30;99.90;;;;;;5033367;28;21888;-61
2023/08/07 02:14:42;;;;;;;14.80;2.90;;;13.30;99.90;;;;;;5032980;28;20033;-62
2023/08/07 02:17:08;;;;;;;12.73;2.80;;;13.40;99.90;;;;;;5029904;28;20034;-62
2023/08/07 02:19:33;;;;;;;15.63;4.03;;;13.40;99.90;;;;;;5030226;28;20393;-61
2023/08/07 02:21:59;;;;;;;11.77;3.10;;;13.40;99.90;;;;;;5033497;28;20022;-59
2023/08/07 02:24:24;;;;;;;12.65;2.72;;;13.40;99.90;;;;;;5031687;28;20087;-62
2023/08/07 02:26:50;;;;;;;26.20;3.58;;;13.40;99.90;;;;;;5033527;28;20037;-62
2023/08/07 02:29:15;;;;;;;16.50;3.25;;;13.40;99.90;;;;;;5030170;28;20045;-60
2023/08/07 02:31:41;;;;;;;15.32;3.58;;;13.40;99.90;;;;;;5033494;28;20034;-63
2023/08/07 02:34:07;;;;;;;21.58;4.00;;;13.40;99.90;;;;;;5038878;28;20117;-62
2023/08/07 02:36:32;;;;;;;16.27;3.45;;;13.40;99.90;;;;;;5031036;28;20492;-61
2023/08/07 02:38:58;;;;;;;19.40;3.90;;;13.40;99.90;;;;;;5032162;28;20029;-59
2023/08/07 02:41:23;;;;;;;9.27;2.97;;;13.40;99.90;;;;;;5031270;28;20083;-59
2023/08/07 02:43:49;;;;;;;12.25;3.30;;;13.40;99.90;;;;;;5034454;28;20033;-62
2023/08/07 02:46:14;;;;;;;12.43;2.80;;;13.50;99.90;;;;;;5032737;28;20025;-59
2023/08/07 02:48:40;;;;;;;17.17;3.40;;;13.50;99.90;;;;;;5035807;28;20110;-62
2023/08/07 02:51:06;;;;;;;13.68;2.38;;;13.50;99.90;;;;;;5036484;28;20025;-62
2023/08/07 02:53:31;;;;;;;14.80;3.50;;;13.40;99.90;;;;;;5037097;28;20451;-62
2023/08/07 02:55:57;;;;;;;14.77;3.00;;;13.50;99.90;;;;;;5034254;28;20447;-60
2023/08/07 02:58:22;;;;;;;14.07;3.42;;;13.40;99.90;;;;;;5032936;28;20061;-59
2023/08/07 03:00:48;;;;;;;15.15;3.50;;;13.40;99.90;;;;;;5036935;28;20021;-61
2023/08/07 03:03:13;;;;;;;14.68;3.42;;;13.30;99.90;;;;;;5035717;28;20048;-62
2023/08/07 03:05:39;;;;;;;15.27;3.35;;;13.30;99.90;;;;;;5030783;28;20040;-61
2023/08/07 03:08:04;;;;;;;11.77;3.47;;;13.20;99.90;;;;;;5031010;28;20029;-61
2023/08/07 03:10:30;;;;;;;16.17;3.45;;;13.20;99.90;;;;;;5033023;28;20044;-61
2023/08/07 03:12:55;;;;;;;14.95;3.60;;;13.10;99.90;;;;;;5028048;28;20025;-61
2023/08/07 03:15:21;;;;;;;20.33;3.72;;;13.10;99.90;;;;;;5033863;28;20026;-61
2023/08/07 03:17:46;;;;;;;19.48;3.65;;;13.10;99.90;;;;;;5036237;28;20032;-59
2023/08/07 03:20:12;;;;;;;17.00;3.60;;;13.10;99.90;;;;;;5034913;28;20069;-60
2023/08/07 03:22:38;;;;;;;18.73;3.85;;;13.10;99.90;;;;;;5031151;28;20033;-61
2023/08/07 03:25:03;;;;;;;14.30;4.35;;;13.00;99.90;;;;;;5035939;28;20021;-62
2023/08/07 03:27:29;;;;;;;26.00;4.60;;;13.00;99.90;;;;;;5027034;28;20558;-60
2023/08/07 03:29:54;;;;;;;16.15;3.13;;;12.90;99.90;;;;;;5034427;28;20036;-62
2023/08/07 03:32:20;;;;;;;14.48;4.05;;;12.90;99.90;;;;;;5032757;28;20052;-63
2023/08/07 03:34:45;;;;;;;22.98;4.97;;;12.90;99.90;;;;;;5038776;28;20064;-62
2023/08/07 03:37:11;;;;;;;20.80;3.65;;;12.80;99.90;;;;;;5029616;28;20057;-61
2023/08/07 03:39:36;;;;;;;18.05;3.90;;;12.80;99.90;;;;;;5030265;28;20055;-61
2023/08/07 03:42:02;;;;;;;18.33;4.53;;;12.80;99.90;;;;;;5034054;28;20489;-62
2023/08/07 03:44:28;;;;;;;13.35;4.13;;;12.80;99.90;;;;;;5033375;28;20029;-62
2023/08/07 03:46:56;;;;;;;11.63;4.63;;;12.80;99.90;;;;;;5035338;28;20029;-61
2023/08/07 03:49:22;;;;;;;20.08;4.40;;;12.80;99.90;;;;;;5033841;28;20029;-62
2023/08/07 03:51:49;;;;;;;22.63;4.63;;;12.80;99.90;;;;;;5030715;28;20034;-63
2023/08/07 03:54:14;;;;;;;20.88;4.43;;;12.80;99.90;;;;;;5037856;28;20032;-63
2023/08/07 03:56:40;;;;;;;12.45;4.07;;;12.80;99.90;;;;;;5031966;28;20067;-62
2023/08/07 03:59:06;;;;;;;10.23;3.65;;;12.80;99.90;;;;;;5033356;28;20038;-62
2023/08/07 04:01:32;;;;;;;16.83;3.72;;;12.80;99.90;;;;;;5031178;28;20028;-61
2023/08/07 04:03:57;;;;;;;16.35;4.45;;;12.80;99.90;;;;;;5036388;28;20022;-61
2023/08/07 04:06:23;;;;;;;18.92;7.38;;;12.80;99.90;;;;;;5029570;28;20022;-61
2023/08/07 04:08:48;;;;;;;16.00;4.10;;;12.80;99.90;;;;;;5035262;28;20028;-64
2023/08/07 04:11:14;;;;;;;17.73;4.30;;;12.80;99.90;;;;;;5033523;28;20025;-63
2023/08/07 04:13:40;;;;;;;8.80;3.28;;;12.80;99.90;;;;;;5033635;28;20037;-63
2023/08/07 04:16:05;;;;;;;16.40;3.72;;;12.80;99.90;;;;;;5030505;28;20425;-63
2023/08/07 04:18:32;;;;;;;17.77;4.70;;;12.80;99.90;;;;;;5033062;28;20060;-60
2023/08/07 04:20:59;;;;;;;15.05;4.10;;;12.70;99.90;;;;;;5035817;28;20046;-63
2023/08/07 04:23:25;;;;;;;18.88;5.65;;;12.80;99.90;;;;;;5029350;28;20394;-62
2023/08/07 04:25:51;;;;;;;16.65;4.47;;;12.70;99.90;;;;;;5031368;28;20104;-64
2023/08/07 04:28:17;;;;;;;15.95;4.63;;;12.70;99.90;;;;;;5030049;28;20056;-64
2023/08/07 04:30:44;;;;;;;17.05;4.97;;;12.70;99.90;;;;;;5033109;28;20029;-63
2023/08/07 04:33:10;;;;;;;12.15;4.38;;;12.70;99.90;;;;;;5029937;28;20029;-61
2023/08/07 04:35:35;;;;;;;14.50;4.63;;;12.70;99.90;;;;;;5031724;28;20123;-61
2023/08/07 04:38:02;;;;;;;16.08;5.15;;;12.70;99.90;;;;;;5043092;28;20057;-62
2023/08/07 04:40:28;;;;;;;21.73;5.72;;;12.70;99.90;;;;;;5030861;28;20022;-64
2023/08/07 04:42:55;;;;;;;13.73;4.72;;;12.70;99.90;;;;;;5028610;28;20032;-63
2023/08/07 04:45:20;;;;;;;19.67;5.45;;;12.70;99.90;;;;;;5032816;28;20029;-61
2023/08/07 04:47:46;;;;;;;11.18;4.20;;;12.70;99.90;;;;;;5030060;28;20104;-60
2023/08/07 04:50:12;;;;;;;19.67;4.78;;;12.70;99.90;;;;;;5031339;28;20033;-60
2023/08/07 04:52:37;;;;;;;16.17;4.30;;;12.70;99.90;;;;;;5036200;28;20029;-61
2023/08/07 04:55:04;;;;;;;18.85;4.43;;;12.70;99.90;;;;;;5030443;28;20037;-60
2023/08/07 04:57:29;;;;;;;27.55;4.70;;;12.70;99.90;;;;;;5033585;28;20025;-63
2023/08/07 04:59:55;;;;;;;16.05;4.68;;;12.80;99.90;;;;;;5029944;28;20037;-62
2023/08/07 05:02:20;;;;;;;21.63;5.15;;;12.80;99.90;;;;;;5031762;28;20040;-62
2023/08/07 05:04:46;;;;;;;26.52;5.57;;;12.80;99.90;;;;;;5038496;28;20032;-65
2023/08/07 05:07:12;;;;;;;24.63;4.82;;;12.80;99.90;;;;;;5036359;28;20151;-62
2023/08/07 05:09:38;;;;;;;22.50;6.75;;;12.80;99.90;;;;;;5033315;28;20489;-60
2023/08/07 05:12:04;;;;;;;11.70;3.58;;;12.80;99.90;;;;;;5030954;28;20038;-62
2023/08/07 05:14:30;;;;;;;16.83;3.65;;;12.80;99.90;;;;;;5031550;28;20029;-63
2023/08/07 05:16:55;;;;;;;7.22;2.92;;;12.90;99.90;;;;;;5032487;28;20040;-63
2023/08/07 05:19:21;;;;;;;17.77;4.28;;;12.80;99.90;;;;;;5034621;28;20045;-64
2023/08/07 05:21:50;;;;;;;22.60;3.97;;;12.90;99.90;;;;;;5025345;28;20037;-63
2023/08/07 05:24:19;;;;;;;18.80;5.18;;;12.90;99.90;;;;;;5033222;28;20025;-65
2023/08/07 05:26:45;;;;;;;13.32;4.22;;;12.90;99.90;;;;;;5033843;28;20405;-63
2023/08/07 05:29:11;;;;;;;16.48;3.22;;;13.00;99.90;;;;;;5027276;28;20033;-60
2023/08/07 05:31:37;;;;;;;21.90;4.47;;;13.00;99.90;;;;;;5033981;28;20536;-64
2023/08/07 05:34:03;;;;;;;15.82;4.45;;;13.00;99.90;;;;;;5032796;28;20028;-63
2023/08/07 05:36:29;;;;;;;14.30;3.40;;;13.00;99.90;;;;;;5032779;28;20065;-59
2023/08/07 05:38:55;;;;;;;13.88;3.42;;;13.00;99.90;;;;;;5040774;28;20025;-63
2023/08/07 05:41:21;;;;;;;9.43;3.60;;;13.00;99.90;;;;;;5052550;28;20109;-59
2023/08/07 05:43:46;;;;;;;16.65;2.95;;;13.00;99.90;;;;;;5035502;28;20029;-63
2023/08/07 05:46:12;;;;;;;14.65;4.35;;;13.10;99.90;;;;;;5033793;28;20059;-63
2023/08/07 05:48:37;;;;;;;11.38;3.88;;;13.10;99.90;;;;;;5039837;28;20036;-61
2023/08/07 05:51:03;;;;;;;20.45;3.78;;;13.10;99.90;;;;;;5034379;28;20045;-63
2023/08/07 05:53:28;;;;;;;8.55;3.10;;;13.10;99.90;;;;;;5037771;28;20068;-60
2023/08/07 05:55:55;;;;;;;13.43;3.20;;;13.10;99.90;;;;;;5028925;28;20116;-61
2023/08/07 05:58:21;;;;;;;12.23;2.95;;;13.10;99.90;;;;;;5031111;28;20134;-62
2023/08/07 06:00:46;;;;;;;8.88;2.85;;;13.10;99.90;;;;;;5029599;28;20504;-63
2023/08/07 06:03:12;;;;;;;12.20;3.28;;;13.20;99.90;;;;;;5033612;28;20033;-63
2023/08/07 06:05:38;;;;;;;21.63;3.35;;;13.20;99.90;;;;;;5027855;28;20021;-60
2023/08/07 06:08:03;;;;;;;9.15;2.90;;;13.20;99.90;;;;;;5030579;28;20029;-63
2023/08/07 06:10:29;;;;;;;22.50;2.97;;;13.20;99.90;;;;;;5030196;28;20033;-64
2023/08/07 06:12:55;;;;;;;18.00;3.33;;;13.20;99.90;;;;;;5035104;28;20022;-61
2023/08/07 06:15:20;;;;;;;9.80;3.00;;;13.20;99.90;;;;;;5032582;28;20038;-62
2023/08/07 06:17:46;;;;;;;16.92;3.70;;;13.10;99.90;;;;;;5034353;28;20424;-63
2023/08/07 06:20:14;;;;;;;11.43;3.05;;;13.00;99.90;;;;;;5031942;28;20029;-61
2023/08/07 06:22:40;;;;;;;15.60;2.90;;;13.00;99.90;;;;;;5025696;28;20033;-63
2023/08/07 06:25:06;;;;;;;21.48;3.55;;;13.00;99.90;;;;;;5034480;28;20029;-61
2023/08/07 06:27:32;;;;;;;11.85;3.13;;;12.90;99.90;;;;;;5027721;28;20112;-63
2023/08/07 06:29:57;;;;;;;11.10;2.95;;;12.90;99.90;;;;;;5031591;28;20472;-62
2023/08/07 06:32:25;;;;;;;14.45;3.95;;;12.90;99.90;;;;;;5031669;28;20119;-64
2023/08/07 06:34:51;;;;;;;13.95;3.65;;;12.80;99.90;;;;;;5034915;28;20095;-64
2023/08/07 06:37:17;;;;;;;15.05;3.50;;;12.80;99.90;;;;;;5031085;28;20036;-64
2023/08/07 06:39:42;;;;;;;13.32;3.63;;;12.80;99.90;;;;;;5034713;28;20044;-61
2023/08/07 06:42:08;;;;;;;12.35;3.53;;;12.80;99.90;;;;;;5031068;28;20083;-64
2023/08/07 06:44:34;;;;;;;9.73;3.58;;;12.80;99.90;;;;;;5032456;28;20032;-63
2023/08/07 06:46:59;;;;;;;11.38;4.15;;;12.80;99.90;;;;;;5027938;28;20028;-63
2023/08/07 06:49:25;;;;;;;18.63;3.92;;;12.70;99.90;;;;;;5035745;28;20037;-62
2023/08/07 06:51:50;;;;;;;16.00;3.47;;;12.70;99.90;;;;;;5028997;28;20473;-63
2023/08/07 06:54:16;;;;;;;10.95;3.88;;;12.60;99.90;;;;;;5031142;28;20409;-63
2023/08/07 06:56:43;;;;;;;14.80;4.20;;;12.70;99.90;;;;;;5032148;28;20086;-61
2023/08/07 06:59:08;;;;;;;25.10;6.18;;;12.60;99.90;;;;;;5029207;28;20398;-64
2023/08/07 07:01:34;;;;;;;18.33;4.15;;;12.60;99.90;;;;;;5028711;28;20028;-64
2023/08/07 07:03:59;;;;;;;9.93;4.38;;;12.60;99.90;;;;;;5032588;28;20049;-63
2023/08/07 07:06:28;;;;;;;15.93;3.90;;;12.60;99.90;;;;;;5033136;28;20338;-64
2023/08/07 07:08:54;;;;;;;14.95;4.57;;;12.60;99.90;;;;;;5038342;28;20463;-66
2023/08/07 07:11:20;;;;;;;14.68;4.60;;;12.50;99.90;;;;;;5031195;28;20060;-67
2023/08/07 07:13:46;;;;;;;16.08;4.20;;;12.60;99.90;;;;;;5047105;28;20033;-65
2023/08/07 07:16:12;;;;;;;15.65;3.15;;;12.60;99.90;;;;;;5028511;28;20041;-66
2023/08/07 07:18:38;;;;;;;25.75;4.72;;;12.60;99.90;;;;;;5036369;28;20041;-66
2023/08/07 07:21:04;;;;;;;19.10;3.92;;;12.60;99.90;;;;;;5033055;28;20040;-66
2023/08/07 07:23:30;;;;;;;19.42;4.28;;;12.60;99.90;;;;;;5029802;28;20044;-66
2023/08/07 07:25:56;;;;;;;19.33;4.50;;;12.60;99.90;;;;;;5034070;28;20028;-66
2023/08/07 07:28:22;;;;;;;9.38;3.70;;;12.60;99.90;;;;;;5029886;28;20551;-62
2023/08/07 07:30:48;;;;;;;13.55;4.45;;;12.60;99.90;;;;;;5035579;28;20056;-65
2023/08/07 07:33:14;;;;;;;15.55;4.00;;;12.60;99.90;;;;;;5031237;28;20100;-64
2023/08/07 07:35:40;;;;;;;17.33;4.28;;;12.60;99.90;;;;;;5034578;28;20122;-64
2023/08/07 07:38:06;;;;;;;16.63;4.07;;;12.60;99.90;;;;;;5029523;28;20040;-64
2023/08/07 07:40:32;;;;;;;10.90;4.28;;;12.60;99.90;;;;;;5032151;28;20135;-65
2023/08/07 07:42:57;;;;;;;12.88;5.07;;;12.70;99.90;;;;;;5030744;28;20097;-64
2023/08/07 07:45:23;;;;;;;15.75;4.45;;;12.70;99.90;;;;;;5029005;28;20037;-65
2023/08/07 07:47:48;;;;;;;18.05;3.92;;;12.70;99.90;;;;;;5035528;28;20025;-65
2023/08/07 07:50:14;;;;;;;20.40;4.40;;;12.70;99.90;;;;;;5030896;28;20032;-66
2023/08/07 07:52:40;;;;;;;26.67;4.90;;;12.70;99.90;;;;;;5028928;28;20033;-64
2023/08/07 07:55:06;;;;;;;11.70;4.40;;;12.70;99.90;;;;;;5030220;28;20392;-66
2023/08/07 07:57:31;;;;;;;17.88;4.72;;;12.80;99.90;;;;;;5030583;28;20029;-66
2023/08/07 07:59:57;;;;;;;23.52;4.05;;;12.80;99.90;;;;;;5029243;28;20030;-64
2023/08/07 08:02:25;;;;;;;10.00;3.67;;;12.90;99.90;;;;;;5032285;28;20689;-63
2023/08/07 08:04:52;;;;;;;15.23;4.25;;;12.90;99.90;;;;;;5036317;28;20481;-64
2023/08/07 08:07:17;;;;;;;22.52;4.47;;;12.90;99.90;;;;;;5031591;28;20055;-63
2023/08/07 08:09:43;;;;;;;23.35;4.78;;;13.00;99.90;;;;;;5029558;28;20040;-64
2023/08/07 08:12:09;;;;;;;15.48;4.03;;;13.10;99.90;;;;;;5028497;28;20017;-64
2023/08/07 08:14:35;;;;;;;19.95;6.13;;;13.10;99.90;;;;;;5033335;28;20067;-64
2023/08/07 08:17:00;;;;;;;18.27;4.05;;;13.10;99.90;;;;;;5030641;28;20025;-64
2023/08/07 08:19:26;;;;;;;15.25;4.30;;;13.20;99.90;;;;;;5027180;28;20061;-63
2023/08/07 08:21:51;;;;;;;14.20;3.58;;;13.30;99.90;;;;;;5031622;28;20105;-63
2023/08/07 08:24:17;;;;;;;10.00;3.95;;;13.30;99.90;;;;;;5032988;28;20075;-62
2023/08/07 08:26:42;;;;;;;13.70;3.70;;;13.40;99.90;;;;;;5032217;28;20021;-63
2023/08/07 08:29:08;;;;;;;18.70;4.43;;;13.40;99.90;;;;;;5031195;28;20041;-60
2023/08/07 08:31:34;;;;;;;26.98;4.22;;;13.50;99.90;;;;;;5034795;28;20079;-64
2023/08/07 08:33:59;;;;;;;13.10;3.40;;;13.60;99.90;;;;;;5039360;28;20028;-65
2023/08/07 08:36:25;;;;;;;16.63;4.70;;;13.70;99.90;;;;;;5033998;28;20163;-65
2023/08/07 08:38:51;;;;;;;16.17;3.90;;;13.80;99.90;;;;;;5042235;28;20021;-62
2023/08/07 08:41:17;;;;;;;12.80;3.10;;;13.80;99.90;;;;;;5050021;28;20036;-64
2023/08/07 08:43:49;;;;;;;12.48;4.32;;;13.80;99.90;;;;;;5040394;28;20028;-60
2023/08/07 08:46:18;;;;;;;15.88;4.22;;;13.80;99.90;;;;;;5036396;28;20036;-63
2023/08/07 08:48:50;;;;;;;16.25;3.90;;;13.80;99.90;;;;;;5032691;28;20539;-63
2023/08/07 08:51:18;;;;;;;18.50;3.83;;;13.80;99.90;;;;;;5038512;28;20037;-63
2023/08/07 08:53:45;;;;;;;22.17;4.18;;;13.80;99.90;;;;;;5037187;28;20032;-64
2023/08/07 08:56:11;;;;;;;15.68;4.13;;;13.80;99.90;;;;;;5033117;28;20109;-65
2023/08/07 08:58:37;;;;;;;21.23;4.10;;;13.90;99.90;;;;;;5029064;28;20119;-64
2023/08/07 09:01:04;;;;;;;22.70;4.30;;;13.90;99.90;;;;;;5039246;28;20036;-66
2023/08/07 09:03:30;;;;;;;17.00;3.90;;;13.90;99.90;;;;;;5029612;28;20018;-63
2023/08/07 09:05:59;;;;;;;11.43;3.58;;;14.00;99.90;;;;;;5043879;28;20088;-63
2023/08/07 09:08:29;;;;;;;20.65;3.47;;;14.20;99.90;;;;;;5026597;28;20040;-64
2023/08/07 09:10:55;;;;;;;13.88;4.20;;;14.30;99.90;;;;;;5027831;28;20093;-64
2023/08/07 09:13:23;;;;;;;9.13;3.33;;;14.40;99.90;;;;;;5028458;28;20032;-63
2023/08/07 09:15:51;;;;;;;11.65;3.33;;;14.50;99.90;;;;;;5027941;28;20047;-63
2023/08/07 09:18:18;;;;;;;9.50;2.72;;;14.60;99.90;;;;;;5034589;28;20397;-63
2023/08/07 09:20:43;;;;;;;10.35;3.08;;;14.70;99.90;;;;;;5032285;28;20063;-64
2023/08/07 09:23:09;;;;;;;13.98;3.03;;;14.70;99.90;;;;;;5031343;28;20017;-64
2023/08/07 09:25:35;;;;;;;16.55;3.47;;;14.80;99.90;;;;;;5030857;28;20032;-64
2023/08/07 09:28:05;;;;;;;7.22;2.88;;;14.80;99.90;;;;;;5031557;28;20032;-66
2023/08/07 09:30:32;;;;;;;14.00;3.00;;;14.90;99.90;;;;;;5019040;28;20037;-65
2023/08/07 09:32:59;;;;;;;21.27;3.10;;;15.00;99.90;;;;;;5034188;28;20037;-63
2023/08/07 09:35:24;;;;;;;16.60;3.50;;;15.00;99.90;;;;;;5028175;28;20057;-65
2023/08/07 09:37:50;;;;;;;12.10;3.22;;;15.20;99.90;;;;;;5025441;28;20593;-62
2023/08/07 09:40:17;;;;;;;8.77;2.38;;;15.10;99.90;;;;;;5030974;28;20033;-65
2023/08/07 09:42:43;;;;;;;10.75;2.90;;;15.10;99.90;;;;;;5030063;28;20021;-64
2023/08/07 09:45:26;;;;;;;11.57;3.17;;;15.30;99.90;;;;;;5029779;28;20030;-63
2023/08/07 09:48:01;;;;;;;9.90;3.05;;;15.20;99.90;;;;;;5030650;28;20043;-64
2023/08/07 09:50:28;;;;;;;10.00;2.80;;;15.40;99.90;;;;;;5039367;28;20733;-63
2023/08/07 09:52:57;;;;;;;6.28;2.40;;;15.60;99.90;;;;;;5034752;28;20063;-64
2023/08/07 09:55:24;;;;;;;9.10;2.88;;;15.60;99.90;;;;;;5032882;28;20037;-63
2023/08/07 09:57:50;;;;;;;11.32;2.85;;;15.60;99.90;;;;;;5027731;28;20055;-64
2023/08/07 10:00:16;;;;;;;14.00;2.90;;;15.60;99.90;;;;;;5036559;28;20032;-65
2023/08/07 10:02:42;;;;;;;8.57;2.63;;;15.60;99.90;;;;;;5044700;28;20040;-66
2023/08/07 10:05:10;;;;;;;8.18;2.80;;;15.70;99.90;;;;;;5021354;28;20453;-63
2023/08/07 10:07:37;;;;;;;10.27;2.92;;;15.80;99.90;;;;;;5035765;28;20030;-63
2023/08/07 10:10:03;;;;;;;18.60;3.45;;;15.90;99.90;;;;;;5028482;28;20109;-63
2023/08/07 10:12:29;;;;;;;14.43;2.65;;;15.90;99.90;;;;;;5027436;28;20536;-64
2023/08/07 10:14:55;;;;;;;12.88;2.53;;;15.90;99.90;;;;;;5037973;28;20033;-63
2023/08/07 10:17:22;;;;;;;10.05;1.95;;;16.00;99.90;;;;;;5031686;28;20103;-63
2023/08/07 10:19:48;;;;;;;11.73;2.53;;;16.10;99.90;;;;;;5032838;28;20107;-65
2023/08/07 10:22:18;;;;;;;9.48;2.25;;;16.20;99.90;;;;;;5031250;28;20382;-63
2023/08/07 10:24:47;;;;;;;8.73;2.40;;;16.40;99.90;;;;;;5033652;28;20065;-63
2023/08/07 10:27:18;;;;;;;6.32;2.33;;;16.50;99.90;;;;;;5030931;28;20457;-64
2023/08/07 10:29:47;;;;;;;10.43;2.10;;;16.60;99.90;;;;;;5032905;28;20021;-62
2023/08/07 10:32:17;;;;;;;13.02;2.60;;;16.80;99.90;;;;;;5032623;28;20030;-63
2023/08/07 10:34:47;;;;;;;5.85;2.00;;;16.90;99.90;;;;;;5038148;28;20030;-64
2023/08/07 10:37:33;;;;;;;12.48;2.05;;;16.80;99.90;;;;;;5028432;28;20049;-63
2023/08/07 10:40:03;;;;;;;11.25;2.00;;;16.70;99.90;;;;;;5032411;28;20074;-63
2023/08/07 10:42:49;;;;;;;11.05;2.28;;;16.70;99.90;;;;;;5024201;28;20124;-62
2023/08/07 10:45:22;;;;;;;9.82;2.17;;;16.90;99.90;;;;;;5032808;28;20022;-64
2023/08/07 10:48:13;;;;;;;8.60;1.77;;;17.20;99.90;;;;;;5028624;28;20014;-63
2023/08/07 10:51:08;;;;;;;8.65;1.70;;;17.30;99.90;;;;;;5029072;28;20097;-64
2023/08/07 10:53:44;;;;;;;5.50;1.73;;;17.70;99.90;;;;;;5029941;28;20064;-60
2023/08/07 10:56:37;;;;;;;7.28;1.85;;;18.10;99.90;;;;;;5032356;28;20022;-64
2023/08/07 10:59:10;;;;;;;4.18;1.33;;;18.70;99.90;;;;;;5032441;28;20076;-61
2023/08/07 11:01:41;;;;;;;7.28;2.25;;;18.70;99.90;;;;;;5029440;28;20027;-63
2023/08/07 11:04:07;;;;;;;4.65;1.60;;;18.40;99.90;;;;;;5034284;28;20452;-64
2023/08/07 11:06:35;;;;;;;12.25;1.77;;;18.00;99.90;;;;;;5029622;28;20030;-63
2023/08/07 11:09:03;;;;;;;2.75;1.33;;;17.80;99.90;;;;;;5029722;28;20025;-64
2023/08/07 11:11:29;;;;;;;5.32;1.60;;;17.70;99.90;;;;;;5027635;28;20040;-64
2023/08/07 11:13:55;;;;;;;6.43;1.45;;;17.70;99.90;;;;;;5026607;28;20029;-62
2023/08/07 11:16:21;;;;;;;6.47;2.75;;;17.90;99.90;;;;;;5034072;28;20041;-63
2023/08/07 11:18:48;;;;;;;15.20;1.95;;;18.00;99.90;;;;;;5031560;28;20040;-64
2023/08/07 11:21:14;;;;;;;17.17;1.98;;;18.20;99.90;;;;;;5039454;28;20029;-63
2023/08/07 11:23:40;;;;;;;6.30;2.08;;;18.50;99.90;;;;;;5031526;28;20093;-63
2023/08/07 11:26:07;;;;;;;8.80;1.52;;;18.50;99.90;;;;;;5040269;28;20013;-65
2023/08/07 11:28:33;;;;;;;5.28;1.95;;;18.60;99.90;;;;;;5027687;28;20029;-64
2023/08/07 11:30:59;;;;;;;9.50;1.63;;;18.80;99.90;;;;;;5029113;28;20367;-63
2023/08/07 11:33:26;;;;;;;6.03;1.75;;;19.20;99.90;;;;;;5031743;28;20033;-64
2023/08/07 11:35:52;;;;;;;6.60;1.67;;;19.30;99.90;;;;;;5027057;28;20043;-63
2023/08/07 11:38:38;;;;;;;6.57;1.55;;;19.70;99.90;;;;;;5033217;28;20044;-60
2023/08/07 11:41:05;;;;;;;5.30;1.92;;;19.70;99.90;;;;;;5031694;28;20014;-61
2023/08/07 11:43:34;;;;;;;12.90;2.72;;;19.40;99.90;;;;;;5027578;28;20032;-63
2023/08/07 11:46:05;;;;;;;6.63;1.83;;;19.60;99.90;;;;;;5026768;28;20021;-63
2023/08/07 11:48:33;;;;;;;12.82;2.00;;;19.60;99.90;;;;;;5031018;28;20060;-61
2023/08/07 11:50:59;;;;;;;4.80;1.60;;;19.30;99.90;;;;;;5028419;28;20093;-61
2023/08/07 11:53:27;;;;;;;10.32;2.25;;;19.00;99.90;;;;;;5026366;28;20116;-62
2023/08/07 11:55:56;;;;;;;4.93;1.67;;;18.70;99.90;;;;;;5023793;28;20029;-63
2023/08/07 11:58:23;;;;;;;9.30;2.15;;;18.50;99.90;;;;;;5025339;28;20036;-64
2023/08/07 12:00:49;;;;;;;6.60;1.88;;;18.40;99.90;;;;;;5027255;28;20041;-63
2023/08/07 12:03:51;;;;;;;7.25;1.70;;;18.40;99.90;;;;;;5030627;28;20083;-59
2023/08/07 12:06:17;;;;;;;13.43;1.90;;;18.90;99.90;;;;;;5019043;28;20037;-63
2023/08/07 12:08:43;;;;;;;9.50;1.92;;;19.20;99.90;;;;;;5036470;28;20086;-64
2023/08/07 12:11:11;;;;;;;13.80;1.90;;;19.40;99.90;;;;;;5030844;28;20041;-63
2023/08/07 12:13:44;;;;;;;8.07;1.92;;;19.50;99.90;;;;;;5034755;28;20481;-65
2023/08/07 12:16:15;;;;;;;5.28;1.40;;;19.80;99.90;;;;;;5028403;28;20033;-64
2023/08/07 12:18:44;;;;;;;4.47;1.80;;;20.10;99.90;;;;;;5040822;28;20047;-63
2023/08/07 12:21:09;;;;;;;8.10;1.60;;;20.20;99.90;;;;;;5033897;28;20108;-63
2023/08/07 12:23:36;;;;;;;8.10;1.77;;;19.90;99.90;;;;;;5038914;28;20446;-64
2023/08/07 12:26:03;;;;;;;8.00;1.52;;;19.80;99.90;;;;;;5030574;28;20555;-63
2023/08/07 12:28:28;;;;;;;10.73;1.83;;;19.80;99.90;;;;;;5041338;28;20033;-60
2023/08/07 12:30:54;;;;;;;7.47;1.77;;;19.70;99.90;;;;;;5026685;28;20033;-62
2023/08/07 12:33:19;;;;;;;3.33;1.38;;;19.80;99.90;;;;;;5032068;28;20026;-62
2023/08/07 12:35:45;;;;;;;4.80;1.27;;;20.40;99.90;;;;;;5033848;28;20017;-63
2023/08/07 12:38:13;;;;;;;8.75;1.63;;;20.60;99.90;;;;;;5034355;28;20104;-61